Time;durP1;ratioP1;P1;durP2;ratioP2;P2;SDS_P1;SDS_P2;PMS_P1;PMS_P2;Temp;Humidity;BMP_temperature;BMP_pressure;BME280_temperature;BME280_humidity;BME280_pressure;Samples;Min_cycle;Max_cycle;Signal;HPM_P1;HPM_P2
2022/10/06 00:01:31;;;;;;;;;;;14.00;87.70;;;;;;5045712;28;19948;-72
2022/10/06 00:03:58;;;;;;;;;;;13.90;87.80;;;;;;5048405;28;19932;-73
2022/10/06 00:06:26;;;;;;;;;;;13.90;87.70;;;;;;5040202;28;19932;-72
2022/10/06 00:08:53;;;;;;;;;;;13.90;87.80;;;;;;5043563;28;20400;-74
2022/10/06 00:11:22;;;;;;;;;;;13.90;87.80;;;;;;5045174;28;19933;-75
2022/10/06 00:13:55;;;;;;;;;;;13.90;87.80;;;;;;5042204;28;20007;-75
2022/10/06 00:16:24;;;;;;;;;;;13.90;87.80;;;;;;5044156;28;19943;-74
2022/10/06 00:18:51;;;;;;;;;;;13.90;87.80;;;;;;5041894;28;19932;-74
2022/10/06 00:21:18;;;;;;;;;;;13.90;87.90;;;;;;5035405;28;19968;-75
2022/10/06 00:23:44;;;;;;;;;;;13.90;87.90;;;;;;5041584;28;19925;-74
2022/10/06 00:26:15;;;;;;;;;;;13.90;87.80;;;;;;5041651;28;20378;-73
2022/10/06 00:28:43;;;;;;;;;;;13.90;87.90;;;;;;5045571;28;19937;-72
2022/10/06 00:31:10;;;;;;;;;;;13.80;88.00;;;;;;5044216;28;19998;-71
2022/10/06 00:33:37;;;;;;;;;;;13.90;88.00;;;;;;5017388;28;20019;-71
2022/10/06 00:36:04;;;;;;;;;;;13.90;88.00;;;;;;5042395;28;19928;-71
2022/10/06 00:38:31;;;;;;;;;;;13.90;88.00;;;;;;5041647;28;19929;-73
2022/10/06 00:40:58;;;;;;;;;;;13.80;88.00;;;;;;5046549;28;19933;-72
2022/10/06 00:43:51;;;;;;;;;;;13.80;88.10;;;;;;5030651;28;19975;-72
2022/10/06 00:46:24;;;;;;;;;;;13.80;88.00;;;;;;4979052;28;20425;-70
2022/10/06 00:48:53;;;;;;;;;;;13.80;88.10;;;;;;5034772;28;20002;-72
2022/10/06 00:51:21;;;;;;;;;;;13.80;87.90;;;;;;5042543;28;20256;-69
2022/10/06 00:53:50;;;;;;;;;;;13.90;88.00;;;;;;5022972;28;19929;-72
2022/10/06 00:56:17;;;;;;;;;;;13.90;88.10;;;;;;5029405;28;19959;-72
2022/10/06 00:58:43;;;;;;;;;;;13.80;88.10;;;;;;5019392;28;20291;-71
2022/10/06 01:01:11;;;;;;;;;;;13.80;88.00;;;;;;5043518;28;19929;-72
2022/10/06 01:03:41;;;;;;;;;;;13.80;87.90;;;;;;5035088;28;19933;-69
2022/10/06 01:06:08;;;;;;;;;;;13.90;87.80;;;;;;5018257;28;19933;-73
2022/10/06 01:08:35;;;;;;;;;;;13.90;87.70;;;;;;5002805;28;20004;-71
2022/10/06 01:11:04;;;;;;;;;;;13.90;88.00;;;;;;5013465;28;20268;-71
2022/10/06 01:13:34;;;;;;;;;;;13.90;88.20;;;;;;5029716;28;19936;-71
2022/10/06 01:16:03;;;;;;;;;;;13.90;88.20;;;;;;5042892;28;20006;-71
2022/10/06 01:18:31;;;;;;;;;;;13.90;88.10;;;;;;5027774;28;19924;-72
2022/10/06 01:21:05;;;;;;;;;;;13.90;88.20;;;;;;5041794;28;19980;-70
2022/10/06 01:23:33;;;;;;;;;;;13.80;88.20;;;;;;5044404;28;20308;-71
2022/10/06 01:26:03;;;;;;;;;;;13.90;88.10;;;;;;5036251;28;19931;-73
2022/10/06 01:28:32;;;;;;;;;;;13.90;87.90;;;;;;5038071;28;20032;-72
2022/10/06 01:31:00;;;;;;;;;;;13.90;88.00;;;;;;5026589;28;19967;-70
2022/10/06 01:33:33;;;;;;;;;;;13.90;87.90;;;;;;5016544;28;19978;-72
2022/10/06 01:36:00;;;;;;;;;;;13.90;87.80;;;;;;5030564;28;20285;-72
2022/10/06 01:38:28;;;;;;;;;;;14.00;87.90;;;;;;5037658;28;20055;-72
2022/10/06 01:41:01;;;;;;;;;;;14.00;87.90;;;;;;5033073;28;20387;-72
2022/10/06 01:43:28;;;;;;;;;;;14.00;87.90;;;;;;5019286;28;19934;-73
2022/10/06 01:45:56;;;;;;;;;;;14.00;88.30;;;;;;5039005;28;20023;-71
2022/10/06 01:48:23;;;;;;;;;;;14.10;88.30;;;;;;5033483;28;19936;-72
2022/10/06 01:50:50;;;;;;;;;;;14.10;88.50;;;;;;5041386;28;19925;-72
2022/10/06 01:53:20;;;;;;;;;;;14.10;88.50;;;;;;5026639;28;20273;-70
2022/10/06 01:55:48;;;;;;;;;;;14.10;88.60;;;;;;5021274;28;20283;-71
2022/10/06 01:58:20;;;;;;;;;;;14.10;88.60;;;;;;5030584;28;20020;-71
2022/10/06 02:00:46;;;;;;;;;;;14.20;89.00;;;;;;5039976;28;19929;-72
2022/10/06 02:03:14;;;;;;;;;;;14.10;89.10;;;;;;5044577;28;20387;-70
2022/10/06 02:05:43;;;;;;;;;;;14.20;89.20;;;;;;5032800;28;20293;-70
2022/10/06 02:08:12;;;;;;;;;;;14.20;89.10;;;;;;5023427;28;19924;-71
2022/10/06 02:10:38;;;;;;;;;;;14.20;89.20;;;;;;5049643;28;19928;-70
2022/10/06 02:13:10;;;;;;;;;;;14.20;89.20;;;;;;5029058;28;19932;-72
2022/10/06 02:15:38;;;;;;;;;;;14.30;89.50;;;;;;5046709;28;19932;-72
2022/10/06 02:18:05;;;;;;;;;;;14.20;89.40;;;;;;5046558;28;19936;-71
2022/10/06 02:20:32;;;;;;;;;;;14.20;89.30;;;;;;5023301;28;20441;-71
2022/10/06 02:22:58;;;;;;;;;;;14.30;89.40;;;;;;5048555;28;19936;-73
2022/10/06 02:25:26;;;;;;;;;;;14.30;89.30;;;;;;5030602;28;19925;-72
2022/10/06 02:27:53;;;;;;;;;;;14.30;89.30;;;;;;5031501;28;19976;-72
2022/10/06 02:30:20;;;;;;;;;;;14.30;89.40;;;;;;5029432;28;20023;-72
2022/10/06 02:32:48;;;;;;;;;;;14.30;89.50;;;;;;5021954;28;19972;-71
2022/10/06 02:35:15;;;;;;;;;;;14.30;89.40;;;;;;5037576;28;20393;-73
2022/10/06 02:37:43;;;;;;;;;;;14.30;89.50;;;;;;5037055;28;20374;-72
2022/10/06 02:40:15;;;;;;;;;;;14.30;89.40;;;;;;5047571;28;20450;-73
2022/10/06 02:42:45;;;;;;;;;;;14.30;89.50;;;;;;5046770;28;19929;-72
2022/10/06 02:45:13;;;;;;;;;;;14.30;89.50;;;;;;5029125;28;19929;-72
2022/10/06 02:47:40;;;;;;;;;;;14.40;89.30;;;;;;5038324;28;20393;-72
2022/10/06 02:50:09;;;;;;;;;;;14.40;89.70;;;;;;5042592;28;19960;-72
2022/10/06 02:52:39;;;;;;;;;;;14.40;89.20;;;;;;5018425;28;19925;-73
2022/10/06 02:55:07;;;;;;;;;;;14.50;89.00;;;;;;5026585;28;19955;-72
2022/10/06 02:57:34;;;;;;;;;;;14.50;88.90;;;;;;5029048;28;20082;-72
2022/10/06 03:00:01;;;;;;;;;;;14.50;88.70;;;;;;5025298;28;19936;-72
2022/10/06 03:02:30;;;;;;;;;;;14.50;88.30;;;;;;5019735;28;19926;-73
2022/10/06 03:04:57;;;;;;;;;;;14.50;88.10;;;;;;5046642;28;20126;-73
2022/10/06 03:07:25;;;;;;;;;;;14.50;87.80;;;;;;5048297;28;19941;-73
2022/10/06 03:09:52;;;;;;;;;;;14.50;87.80;;;;;;5038652;28;19936;-72
2022/10/06 03:12:21;;;;;;;;;;;14.50;87.60;;;;;;5025090;28;19933;-72
2022/10/06 03:14:48;;;;;;;;;;;14.50;87.40;;;;;;5040258;28;19925;-73
2022/10/06 03:17:15;;;;;;;;;;;14.50;87.40;;;;;;5026566;28;20028;-72
2022/10/06 03:19:50;;;;;;;;;;;14.50;87.40;;;;;;5026367;28;19929;-73
2022/10/06 03:22:16;;;;;;;;;;;14.50;87.40;;;;;;5045522;28;20015;-72
2022/10/06 03:24:54;;;;;;;;;;;14.50;87.40;;;;;;5039992;28;20000;-71
2022/10/06 03:27:21;;;;;;;;;;;14.50;87.30;;;;;;5037350;28;20172;-71
2022/10/06 03:29:50;;;;;;;;;;;14.50;87.30;;;;;;5029461;28;19929;-72
2022/10/06 03:32:19;;;;;;;;;;;14.50;87.20;;;;;;5046258;28;19965;-73
2022/10/06 03:34:46;;;;;;;;;;;14.50;87.20;;;;;;5029014;28;19935;-72
2022/10/06 03:37:14;;;;;;;;;;;14.50;87.30;;;;;;5023098;28;19980;-71
2022/10/06 03:39:41;;;;;;;;;;;14.50;87.30;;;;;;5014703;28;19925;-72
2022/10/06 03:42:09;;;;;;;;;;;14.40;87.40;;;;;;5038191;28;20019;-72
2022/10/06 03:44:36;;;;;;;;;;;14.40;87.40;;;;;;5029503;28;19956;-73
2022/10/06 03:47:04;;;;;;;;;;;14.40;87.20;;;;;;5015190;28;19936;-72
2022/10/06 03:49:32;;;;;;;;;;;14.40;87.10;;;;;;5027643;28;20020;-71
2022/10/06 03:51:58;;;;;;;;;;;14.40;87.10;;;;;;5022984;28;19925;-73
2022/10/06 03:54:30;;;;;;;;;;;14.40;87.00;;;;;;5011689;28;20458;-72
2022/10/06 03:56:57;;;;;;;;;;;14.40;86.90;;;;;;5016879;28;20015;-72
2022/10/06 03:59:27;;;;;;;;;;;14.40;86.80;;;;;;5013509;28;20298;-73
2022/10/06 04:01:54;;;;;;;;;;;14.40;86.60;;;;;;5016843;28;19932;-72
2022/10/06 04:04:27;;;;;;;;;;;14.40;86.80;;;;;;5022810;28;19929;-72
2022/10/06 04:07:00;;;;;;;;;;;14.40;86.70;;;;;;5037536;28;19929;-72
2022/10/06 04:09:27;;;;;;;;;;;14.40;86.70;;;;;;5023765;28;19925;-72
2022/10/06 04:11:53;;;;;;;;;;;14.40;86.70;;;;;;5019528;28;19932;-73
2022/10/06 04:14:20;;;;;;;;;;;14.40;86.70;;;;;;5018684;28;20019;-72
2022/10/06 04:16:49;;;;;;;;;;;14.30;86.70;;;;;;5012746;28;19929;-73
2022/10/06 04:19:24;;;;;;;;;;;14.40;86.60;;;;;;5012456;28;20362;-73
2022/10/06 04:21:54;;;;;;;;;;;14.40;86.60;;;;;;5014844;28;19929;-72
2022/10/06 04:24:23;;;;;;;;;;;14.30;86.60;;;;;;5031287;28;19952;-72
2022/10/06 04:26:51;;;;;;;;;;;14.30;86.60;;;;;;5020899;28;19932;-73
2022/10/06 04:29:19;;;;;;;;;;;14.30;86.50;;;;;;5013299;28;19933;-71
2022/10/06 04:31:52;;;;;;;;;;;14.30;86.60;;;;;;5035953;28;19925;-72
2022/10/06 04:34:24;;;;;;;;;;;14.30;86.60;;;;;;5024703;28;19929;-72
2022/10/06 04:36:52;;;;;;;;;;;14.30;86.60;;;;;;5015196;28;20264;-72
2022/10/06 04:39:19;;;;;;;;;;;14.30;86.60;;;;;;5030557;28;19963;-72
2022/10/06 04:41:46;;;;;;;;;;;14.30;86.60;;;;;;5016741;28;19933;-72
2022/10/06 04:44:17;;;;;;;;;;;14.30;86.70;;;;;;5018964;28;19933;-71
2022/10/06 04:46:45;;;;;;;;;;;14.30;86.60;;;;;;5034915;28;19978;-73
2022/10/06 04:49:13;;;;;;;;;;;14.30;86.60;;;;;;5028974;28;19924;-71
2022/10/06 04:51:40;;;;;;;;;;;14.30;86.70;;;;;;5041911;28;19928;-71
2022/10/06 04:54:07;;;;;;;;;;;14.30;86.70;;;;;;5022656;28;19933;-72
2022/10/06 04:56:39;;;;;;;;;;;14.20;86.90;;;;;;5038552;28;19929;-72
2022/10/06 04:59:08;;;;;;;;;;;14.20;86.90;;;;;;5042486;28;19929;-73
2022/10/06 05:01:38;;;;;;;;;;;14.20;86.90;;;;;;5033212;28;20363;-72
2022/10/06 05:04:08;;;;;;;;;;;14.20;86.90;;;;;;5020318;28;20402;-71
2022/10/06 05:06:38;;;;;;;;;;;14.20;86.80;;;;;;5023172;28;19931;-72
2022/10/06 05:09:06;;;;;;;;;;;14.20;86.80;;;;;;5018931;28;20318;-72
2022/10/06 05:11:34;;;;;;;;;;;14.20;86.70;;;;;;5027470;28;20059;-72
2022/10/06 05:14:03;;;;;;;;;;;14.20;86.70;;;;;;5020702;28;19924;-72
2022/10/06 05:16:32;;;;;;;;;;;14.20;86.60;;;;;;5016521;28;19925;-73
2022/10/06 05:18:59;;;;;;;;;;;14.20;86.50;;;;;;5018498;28;19925;-72
2022/10/06 05:21:27;;;;;;;;;;;14.20;86.50;;;;;;5021798;28;19932;-73
2022/10/06 05:23:55;;;;;;;;;;;14.20;86.50;;;;;;5040771;28;19971;-72
2022/10/06 05:26:24;;;;;;;;;;;14.20;86.50;;;;;;5040831;28;19929;-73
2022/10/06 05:28:52;;;;;;;;;;;14.20;86.20;;;;;;5035038;28;20043;-72
2022/10/06 05:31:20;;;;;;;;;;;14.10;86.40;;;;;;5011680;28;19940;-72
2022/10/06 05:33:47;;;;;;;;;;;14.10;86.30;;;;;;5037218;28;19955;-73
2022/10/06 05:36:15;;;;;;;;;;;14.10;86.20;;;;;;5023406;28;20290;-73
2022/10/06 05:38:42;;;;;;;;;;;14.10;86.30;;;;;;5042812;28;19932;-72
2022/10/06 05:41:11;;;;;;;;;;;14.10;86.30;;;;;;5042834;28;19925;-72
2022/10/06 05:43:39;;;;;;;;;;;14.10;86.30;;;;;;5026336;28;19925;-72
2022/10/06 05:46:07;;;;;;;;;;;14.10;86.30;;;;;;5024506;28;20064;-74
2022/10/06 05:48:34;;;;;;;;;;;14.00;86.50;;;;;;5009106;28;20421;-71
2022/10/06 05:51:02;;;;;;;;;;;14.10;86.30;;;;;;5030983;28;19929;-71
2022/10/06 05:53:30;;;;;;;;;;;14.00;86.30;;;;;;5027692;28;19925;-72
2022/10/06 05:56:05;;;;;;;;;;;14.00;86.20;;;;;;5023129;28;19987;-71
2022/10/06 05:58:34;;;;;;;;;;;13.90;86.30;;;;;;5028954;28;19925;-72
2022/10/06 06:01:08;;;;;;;;;;;13.90;86.50;;;;;;5026833;28;19929;-71
2022/10/06 06:03:35;;;;;;;;;;;13.90;86.40;;;;;;5013257;28;20391;-72
2022/10/06 06:06:01;;;;;;;;;;;13.90;86.30;;;;;;5008347;28;19933;-74
2022/10/06 06:08:29;;;;;;;;;;;13.90;86.40;;;;;;5031805;28;20019;-72
2022/10/06 06:10:55;;;;;;;;;;;13.90;86.30;;;;;;5013868;28;20405;-73
2022/10/06 06:13:22;;;;;;;;;;;13.90;86.10;;;;;;5027350;28;19932;-72
2022/10/06 06:16:07;;;;;;;;;;;13.80;86.10;;;;;;5033597;28;20019;-74
2022/10/06 06:18:36;;;;;;;;;;;13.80;86.10;;;;;;5032615;28;19991;-73
2022/10/06 06:21:05;;;;;;;;;;;13.80;85.80;;;;;;5040052;28;19971;-73
2022/10/06 06:23:33;;;;;;;;;;;13.80;85.80;;;;;;5028561;28;20401;-73
2022/10/06 06:26:00;;;;;;;;;;;13.70;85.80;;;;;;5013351;28;19934;-72
2022/10/06 06:28:28;;;;;;;;;;;13.70;85.80;;;;;;5034154;28;19925;-72
2022/10/06 06:30:59;;;;;;;;;;;13.70;85.30;;;;;;5032626;28;19975;-73
2022/10/06 06:33:27;;;;;;;;;;;13.70;85.30;;;;;;5022245;28;20410;-72
2022/10/06 06:35:53;;;;;;;;;;;13.70;85.20;;;;;;5038154;28;20363;-71
2022/10/06 06:38:20;;;;;;;;;;;13.70;85.20;;;;;;5020574;28;19936;-73
2022/10/06 06:40:48;;;;;;;;;;;13.70;85.20;;;;;;5014005;28;20448;-71
2022/10/06 06:43:15;;;;;;;;;;;13.70;85.20;;;;;;5018373;28;19925;-72
2022/10/06 06:46:11;;;;;;;;;;;13.70;85.10;;;;;;5030805;28;20417;-73
2022/10/06 06:48:58;;;;;;;;;;;13.70;85.00;;;;;;5041989;28;19956;-73
2022/10/06 06:51:26;;;;;;;;;;;13.70;85.00;;;;;;5031035;28;19934;-73
2022/10/06 06:53:53;;;;;;;;;;;13.60;85.10;;;;;;5014106;28;20020;-73
2022/10/06 06:56:22;;;;;;;;;;;13.70;85.10;;;;;;5026052;28;21185;-73
2022/10/06 06:58:49;;;;;;;;;;;13.60;85.00;;;;;;5026022;28;19929;-72
2022/10/06 07:01:16;;;;;;;;;;;13.70;84.90;;;;;;5019024;28;19932;-72
2022/10/06 07:03:45;;;;;;;;;;;13.70;84.90;;;;;;4993078;28;19931;-74
2022/10/06 07:06:15;;;;;;;;;;;13.70;84.70;;;;;;5023280;28;20396;-73
2022/10/06 07:08:43;;;;;;;;;;;13.70;84.40;;;;;;5007479;28;19926;-72
2022/10/06 07:11:11;;;;;;;;;;;13.60;84.40;;;;;;5025012;28;20056;-74
2022/10/06 07:13:38;;;;;;;;;;;13.60;84.60;;;;;;4995586;28;19976;-72
2022/10/06 07:27:14;;;;;;;;;;;13.70;84.00;;;;;;5033346;28;19929;-72
2022/10/06 07:29:41;;;;;;;;;;;13.70;83.60;;;;;;5029760;28;19934;-74
2022/10/06 07:32:08;;;;;;;;;;;13.70;83.50;;;;;;5012690;28;19929;-71
2022/10/06 07:34:35;;;;;;;;;;;13.70;83.50;;;;;;5018179;28;19936;-73
2022/10/06 07:37:03;;;;;;;;;;;13.70;83.20;;;;;;5023586;28;19926;-73
2022/10/06 07:39:31;;;;;;;;;;;13.70;82.60;;;;;;5015348;28;19976;-72
2022/10/06 07:41:58;;;;;;;;;;;13.80;82.10;;;;;;5022503;28;19979;-73
2022/10/06 07:44:25;;;;;;;;;;;13.80;81.70;;;;;;5039546;28;19925;-71
2022/10/06 07:46:51;;;;;;;;;;;13.80;81.10;;;;;;5019532;28;19925;-72
2022/10/06 07:49:27;;;;;;;;;;;13.90;80.30;;;;;;5018781;28;19975;-72
2022/10/06 07:51:55;;;;;;;;;;;13.90;80.30;;;;;;5022431;28;19929;-71
2022/10/06 07:54:23;;;;;;;;;;;13.90;80.10;;;;;;5023195;28;19925;-72
2022/10/06 07:57:05;;;;;;;;;;;14.00;79.70;;;;;;5018915;28;20911;-72
2022/10/06 07:59:33;;;;;;;;;;;14.00;79.20;;;;;;5019032;28;19983;-73
2022/10/06 08:02:01;;;;;;;;;;;14.10;78.70;;;;;;5014422;28;19931;-71
2022/10/06 08:04:27;;;;;;;;;;;14.10;79.00;;;;;;5012497;28;20646;-72
2022/10/06 08:06:57;;;;;;;;;;;14.20;79.00;;;;;;5017631;28;20020;-73
2022/10/06 08:09:25;;;;;;;;;;;14.20;78.80;;;;;;5028224;28;19935;-72
2022/10/06 08:11:52;;;;;;;;;;;14.10;78.20;;;;;;5023274;28;19940;-72
2022/10/06 08:14:18;;;;;;;;;;;14.10;78.20;;;;;;5019353;28;19937;-71
2022/10/06 08:16:45;;;;;;;;;;;14.10;78.10;;;;;;5019508;28;19929;-71
2022/10/06 08:19:13;;;;;;;;;;;14.00;78.00;;;;;;5014568;28;19936;-73
2022/10/06 08:21:40;;;;;;;;;;;14.10;78.00;;;;;;5020694;28;19979;-72
2022/10/06 08:24:06;;;;;;;;;;;14.00;77.70;;;;;;5021370;28;20387;-72
2022/10/06 08:26:34;;;;;;;;;;;14.00;77.90;;;;;;5017750;28;19929;-72
2022/10/06 08:29:02;;;;;;;;;;;14.10;77.70;;;;;;5026350;28;19925;-72
2022/10/06 08:31:29;;;;;;;;;;;14.20;77.70;;;;;;5020040;28;19929;-71
2022/10/06 08:33:56;;;;;;;;;;;14.40;76.40;;;;;;5021241;28;19932;-72
2022/10/06 08:36:25;;;;;;;;;;;14.60;75.80;;;;;;5022712;28;19937;-71
2022/10/06 08:38:53;;;;;;;;;;;14.70;75.40;;;;;;5020582;28;20034;-72
2022/10/06 08:41:22;;;;;;;;;;;14.70;74.90;;;;;;5022284;28;19929;-71
2022/10/06 08:43:53;;;;;;;;;;;14.70;74.50;;;;;;5016430;28;19933;-74
2022/10/06 08:46:22;;;;;;;;;;;14.90;74.70;;;;;;5018076;28;19973;-71
2022/10/06 08:48:48;;;;;;;;;;;15.00;74.40;;;;;;5016175;28;19940;-73
2022/10/06 08:51:22;;;;;;;;;;;15.10;73.20;;;;;;5015946;28;20365;-72
2022/10/06 08:53:54;;;;;;;;;;;15.20;73.90;;;;;;5019084;28;20023;-72
2022/10/06 08:56:23;;;;;;;;;;;15.30;72.50;;;;;;5018114;28;19930;-73
2022/10/06 08:58:53;;;;;;;;;;;15.30;72.30;;;;;;5025438;28;19925;-71
2022/10/06 09:01:23;;;;;;;;;;;15.30;72.00;;;;;;5018298;28;19936;-72
2022/10/06 09:03:51;;;;;;;;;;;15.50;72.30;;;;;;5021670;28;19937;-73
2022/10/06 09:06:22;;;;;;;;;;;15.60;72.40;;;;;;5008082;28;19971;-71
2022/10/06 09:08:51;;;;;;;;;;;15.80;70.70;;;;;;5034914;28;19933;-73
2022/10/06 09:11:41;;;;;;;;;;;15.90;71.50;;;;;;5018995;28;19940;-72
2022/10/06 09:14:15;;;;;;;;;;;15.90;70.40;;;;;;5008637;28;19929;-72
2022/10/06 09:16:44;;;;;;;;;;;16.00;70.20;;;;;;5013696;28;21738;-72
2022/10/06 09:19:14;;;;;;;;;;;16.10;70.40;;;;;;5018518;28;19976;-71
2022/10/06 09:21:44;;;;;;;;;;;16.20;69.20;;;;;;5023188;28;19925;-71
2022/10/06 09:24:13;;;;;;;;;;;16.20;69.20;;;;;;5014977;28;19971;-72
2022/10/06 09:26:44;;;;;;;;;;;16.20;69.70;;;;;;5016381;28;20430;-72
2022/10/06 09:29:12;;;;;;;;;;;16.50;69.70;;;;;;5030877;28;20402;-72
2022/10/06 09:31:42;;;;;;;;;;;16.60;68.70;;;;;;5017056;28;20393;-72
2022/10/06 09:34:14;;;;;;;;;;;16.70;68.30;;;;;;5019559;28;19940;-72
2022/10/06 09:36:57;;;;;;;;;;;16.80;66.30;;;;;;5015722;28;19929;-72
2022/10/06 09:39:25;;;;;;;;;;;16.90;66.40;;;;;;5015789;28;20392;-72
2022/10/06 09:41:51;;;;;;;;;;;17.00;67.50;;;;;;5015205;28;19925;-72
2022/10/06 09:44:23;;;;;;;;;;;16.90;66.30;;;;;;5020211;28;19968;-72
2022/10/06 09:46:51;;;;;;;;;;;16.80;67.10;;;;;;5014334;28;19975;-71
2022/10/06 09:49:18;;;;;;;;;;;16.70;67.20;;;;;;5037863;28;20011;-72
2022/10/06 09:52:02;;;;;;;;;;;16.60;66.20;;;;;;5037502;28;19933;-73
2022/10/06 09:54:28;;;;;;;;;;;16.70;65.70;;;;;;5043766;28;19956;-71
2022/10/06 09:56:58;;;;;;;;;;;16.90;65.30;;;;;;5035895;28;19929;-71
2022/10/06 09:59:30;;;;;;;;;;;17.00;64.30;;;;;;5033244;28;19928;-73
2022/10/06 10:01:58;;;;;;;;;;;17.10;64.00;;;;;;5038475;28;20027;-72
2022/10/06 10:04:26;;;;;;;;;;;17.10;63.50;;;;;;5034347;28;19928;-71
2022/10/06 10:06:53;;;;;;;;;;;17.10;63.40;;;;;;5032497;28;20051;-72
2022/10/06 10:09:27;;;;;;;;;;;17.10;63.00;;;;;;5033381;28;20356;-71
2022/10/06 10:14:47;;;;;;;;;;;17.20;62.10;;;;;;5025501;28;20375;-71
2022/10/06 10:17:17;;;;;;;;;;;17.20;62.10;;;;;;5016137;28;20529;-71
2022/10/06 10:19:45;;;;;;;;;;;17.20;62.70;;;;;;5024535;28;19925;-72
2022/10/06 10:22:19;;;;;;;;;;;17.40;62.50;;;;;;5021325;28;20030;-71
2022/10/06 10:24:50;;;;;;;;;;;17.50;62.70;;;;;;5021841;28;19929;-72
2022/10/06 10:27:20;;;;;;;;;;;17.50;62.80;;;;;;5023169;28;19925;-71
2022/10/06 10:30:00;;;;;;;;;;;17.60;62.20;;;;;;5017439;28;20314;-72
2022/10/06 10:32:38;;;;;;;;;;;17.60;62.50;;;;;;5022488;28;20056;-70
2022/10/06 10:35:10;;;;;;;;;;;17.70;62.60;;;;;;5041605;28;19928;-72
2022/10/06 10:37:41;;;;;;;;;;;17.60;61.50;;;;;;5046545;28;19931;-72
2022/10/06 10:40:11;;;;;;;;;;;17.70;60.70;;;;;;5044147;28;19936;-72
2022/10/06 10:42:41;;;;;;;;;;;17.70;61.20;;;;;;5039493;28;19928;-71
2022/10/06 10:45:15;;;;;;;;;;;17.80;61.30;;;;;;5030583;28;19928;-70
2022/10/06 10:47:43;;;;;;;;;;;17.80;61.10;;;;;;5041518;28;20367;-70
2022/10/06 10:50:16;;;;;;;;;;;17.90;61.20;;;;;;5045130;28;20028;-72
2022/10/06 10:52:46;;;;;;;;;;;17.90;61.50;;;;;;5040669;28;19965;-71
2022/10/06 10:55:19;;;;;;;;;;;17.90;61.00;;;;;;5043948;28;19924;-72
2022/10/06 10:57:47;;;;;;;;;;;17.80;60.70;;;;;;5039687;28;19929;-71
2022/10/06 11:00:19;;;;;;;;;;;17.80;59.50;;;;;;5033691;28;19928;-71
2022/10/06 11:02:46;;;;;;;;;;;17.80;59.50;;;;;;5036891;28;20298;-71
2022/10/06 11:05:15;;;;;;;;;;;17.80;60.00;;;;;;5040355;28;20020;-70
2022/10/06 11:07:46;;;;;;;;;;;17.80;60.40;;;;;;5042733;28;19987;-72
2022/10/06 11:10:16;;;;;;;;;;;17.80;59.90;;;;;;5044026;28;19924;-69
2022/10/06 11:12:53;;;;;;;;;;;17.90;59.90;;;;;;5038839;28;20308;-71
2022/10/06 11:15:25;;;;;;;;;;;17.80;59.40;;;;;;5042462;28;20295;-72
2022/10/06 11:17:54;;;;;;;;;;;17.80;59.40;;;;;;5015515;28;20279;-71
2022/10/06 11:20:36;;;;;;;;;;;17.80;58.50;;;;;;5044525;28;19924;-70
2022/10/06 11:23:17;;;;;;;;;;;17.90;58.70;;;;;;5036410;28;19932;-70
2022/10/06 11:25:54;;;;;;;;;;;17.80;58.00;;;;;;5027293;28;20000;-71
2022/10/06 11:28:23;;;;;;;;;;;17.80;58.90;;;;;;5019535;28;19929;-71
2022/10/06 11:30:58;;;;;;;;;;;17.90;58.30;;;;;;5020947;28;19929;-71
2022/10/06 11:33:27;;;;;;;;;;;17.90;58.40;;;;;;5022972;28;19925;-72
2022/10/06 11:35:54;;;;;;;;;;;17.90;58.10;;;;;;5022351;28;19937;-71
2022/10/06 11:38:24;;;;;;;;;;;17.90;58.80;;;;;;5025527;28;19929;-71
2022/10/06 11:41:07;;;;;;;;;;;17.90;58.90;;;;;;5018146;28;19969;-69
2022/10/06 11:43:36;;;;;;;;;;;17.90;59.40;;;;;;5038359;28;20302;-70
2022/10/06 11:46:07;;;;;;;;;;;17.90;59.30;;;;;;5037969;28;19951;-70
2022/10/06 11:48:34;;;;;;;;;;;17.90;59.90;;;;;;5038674;28;19925;-70
2022/10/06 11:51:20;;;;;;;;;;;17.90;59.10;;;;;;5034370;28;19933;-71
2022/10/06 11:53:47;;;;;;;;;;;17.80;58.90;;;;;;5042687;28;20340;-73
2022/10/06 11:56:24;;;;;;;;;;;17.80;59.50;;;;;;5042674;28;20285;-70
2022/10/06 11:59:10;;;;;;;;;;;17.80;59.20;;;;;;5036591;28;19929;-70
2022/10/06 12:01:51;;;;;;;;;;;17.80;59.70;;;;;;5045466;28;20275;-72
2022/10/06 12:04:20;;;;;;;;;;;17.70;59.60;;;;;;5032935;28;20012;-71
2022/10/06 12:07:05;;;;;;;;;;;17.70;59.60;;;;;;5043788;28;19924;-71
2022/10/06 12:09:37;;;;;;;;;;;17.70;58.80;;;;;;5038577;28;19925;-71
2022/10/06 12:12:26;;;;;;;;;;;17.70;58.70;;;;;;5042570;28;19933;-69
2022/10/06 12:14:56;;;;;;;;;;;17.60;58.80;;;;;;5039518;28;19984;-71
2022/10/06 12:17:27;;;;;;;;;;;17.70;59.80;;;;;;5038105;28;19937;-72
2022/10/06 12:19:55;;;;;;;;;;;17.70;59.30;;;;;;5043001;28;19929;-72
2022/10/06 12:22:25;;;;;;;;;;;17.70;59.40;;;;;;5041835;28;19925;-70
2022/10/06 12:24:54;;;;;;;;;;;17.70;59.20;;;;;;5038997;28;19933;-72
2022/10/06 12:27:34;;;;;;;;;;;17.70;59.80;;;;;;5038000;28;19929;-72
2022/10/06 12:30:04;;;;;;;;;;;17.70;59.10;;;;;;5020963;28;19932;-71
2022/10/06 12:32:45;;;;;;;;;;;17.70;58.40;;;;;;5026592;28;19932;-72
2022/10/06 12:35:18;;;;;;;;;;;17.60;58.00;;;;;;5014717;28;19940;-72
2022/10/06 12:37:46;;;;;;;;;;;17.60;58.10;;;;;;5018478;28;20049;-71
2022/10/06 12:40:31;;;;;;;;;;;17.60;58.40;;;;;;5016305;28;19936;-71
2022/10/06 12:43:17;;;;;;;;;;;17.60;57.90;;;;;;5022317;28;20289;-71
2022/10/06 12:45:48;;;;;;;;;;;17.60;57.90;;;;;;5018173;28;20044;-70
2022/10/06 12:48:18;;;;;;;;;;;17.60;57.60;;;;;;5037576;28;19925;-71
2022/10/06 12:50:45;;;;;;;;;;;17.60;57.80;;;;;;5046140;28;20959;-70
2022/10/06 12:53:13;;;;;;;;;;;17.60;58.20;;;;;;5027371;28;20270;-71
2022/10/06 12:55:42;;;;;;;;;;;17.50;58.00;;;;;;5046094;28;19932;-70
2022/10/06 12:58:16;;;;;;;;;;;17.50;58.20;;;;;;5044978;28;19940;-71
2022/10/06 13:00:43;;;;;;;;;;;17.50;58.40;;;;;;5046861;28;19929;-72
2022/10/06 13:03:15;;;;;;;;;;;17.40;58.30;;;;;;5046153;28;19928;-71
2022/10/06 13:05:49;;;;;;;;;;;17.40;58.10;;;;;;5047019;28;19929;-71
2022/10/06 13:08:20;;;;;;;;;;;17.30;58.20;;;;;;5045791;28;20039;-72
2022/10/06 13:10:49;;;;;;;;;;;17.40;58.60;;;;;;5037399;28;19925;-70
2022/10/06 13:13:23;;;;;;;;;;;17.30;58.50;;;;;;5046547;28;19929;-70
2022/10/06 13:15:50;;;;;;;;;;;17.30;58.80;;;;;;5044882;28;19928;-70
2022/10/06 13:18:18;;;;;;;;;;;17.30;59.30;;;;;;5046741;28;20378;-71
2022/10/06 13:20:48;;;;;;;;;;;17.30;59.30;;;;;;5045028;28;19963;-70
2022/10/06 13:23:20;;;;;;;;;;;17.30;59.40;;;;;;5047502;28;19925;-69
2022/10/06 13:25:47;;;;;;;;;;;17.20;59.30;;;;;;5046640;28;20307;-69
2022/10/06 13:28:21;;;;;;;;;;;17.20;59.40;;;;;;5017516;28;19929;-71
2022/10/06 13:30:54;;;;;;;;;;;17.20;59.10;;;;;;5024260;28;19932;-70
2022/10/06 13:33:22;;;;;;;;;;;17.20;59.00;;;;;;5023661;28;19929;-72
2022/10/06 13:35:51;;;;;;;;;;;17.10;58.80;;;;;;5020651;28;19933;-71
2022/10/06 13:38:18;;;;;;;;;;;17.10;58.40;;;;;;5025360;28;23389;-71
2022/10/06 13:40:45;;;;;;;;;;;17.10;58.50;;;;;;5027435;28;19925;-71
2022/10/06 13:43:16;;;;;;;;;;;17.10;58.70;;;;;;5044092;28;19932;-72
2022/10/06 13:45:47;;;;;;;;;;;17.10;58.80;;;;;;5043222;28;19933;-72
2022/10/06 13:48:15;;;;;;;;;;;17.10;58.80;;;;;;5044741;28;19925;-72
2022/10/06 13:50:44;;;;;;;;;;;17.10;58.40;;;;;;5043491;28;19925;-72
2022/10/06 13:53:24;;;;;;;;;;;17.10;58.00;;;;;;5029214;28;19925;-72
2022/10/06 13:55:51;;;;;;;;;;;17.10;57.70;;;;;;5041225;28;20637;-71
2022/10/06 13:58:18;;;;;;;;;;;17.00;58.60;;;;;;5043571;28;19924;-71
2022/10/06 14:00:47;;;;;;;;;;;17.00;58.70;;;;;;5047667;28;19925;-70
2022/10/06 14:03:20;;;;;;;;;;;17.00;58.80;;;;;;5039205;28;19974;-71
2022/10/06 14:05:47;;;;;;;;;;;17.00;58.80;;;;;;5036131;28;19933;-70
2022/10/06 14:08:20;;;;;;;;;;;16.90;58.30;;;;;;5029041;28;19933;-70
2022/10/06 14:10:56;;;;;;;;;;;16.90;58.10;;;;;;5035359;28;19932;-71
2022/10/06 14:13:25;;;;;;;;;;;16.90;58.10;;;;;;5040389;28;20020;-71
2022/10/06 14:15:54;;;;;;;;;;;16.90;58.00;;;;;;5040392;28;20346;-70
2022/10/06 14:18:22;;;;;;;;;;;16.90;58.40;;;;;;5037738;28;19929;-70
2022/10/06 14:20:52;;;;;;;;;;;16.90;57.80;;;;;;5044852;28;19940;-72
2022/10/06 14:23:41;;;;;;;;;;;16.90;56.90;;;;;;5047649;28;19935;-71
2022/10/06 14:26:10;;;;;;;;;;;16.90;56.40;;;;;;5048641;28;19929;-70
2022/10/06 14:28:37;;;;;;;;;;;16.90;56.40;;;;;;5045945;28;20398;-67
2022/10/06 14:31:04;;;;;;;;;;;16.90;56.40;;;;;;5047861;28;20871;-67
2022/10/06 14:33:34;;;;;;;;;;;16.80;56.50;;;;;;5044896;28;19933;-69
2022/10/06 14:36:02;;;;;;;;;;;16.70;56.60;;;;;;5028448;28;19978;-66
2022/10/06 14:38:29;;;;;;;;;;;16.80;56.80;;;;;;5044244;28;20058;-65
2022/10/06 14:41:01;;;;;;;;;;;16.70;56.80;;;;;;5025709;28;19933;-67
2022/10/06 14:43:29;;;;;;;;;;;16.70;57.90;;;;;;5020263;28;19929;-63
2022/10/06 14:46:02;;;;;;;;;;;16.70;57.80;;;;;;4994977;28;19936;-69